
<gpx xmlns="http://www.topografix.com/GPX/1/1" xmlns:gpxx="http://www.garmin.com/xmlschemas/GpxExtensions/v3" xmlns:xsi="http://www.w3.org/2001/XMLSchema-instance" version="1.1" creator="Adze - http://kobotsw.com/apps/adze" xsi:schemaLocation="http://www.topografix.com/GPX/1/1 http://www.topografix.com/GPX/1/1/gpx.xsd http://www.garmin.com/xmlschemas/GpxExtensions/v3 http://www.garmin.com/xmlschemas/GpxExtensionsv3.xsd">
    <metadata>
        <name>Untitled Document</name>
        <link href="http://www.garmin.com"></link>
        <time>2018-02-26T07:12:21.701Z</time>
    </metadata>
    <wpt lon="99.679750" lat="13.185569">
        <ele>33.000000</ele>
        <name>Thanatthichaburi Resort</name>
        <cmt>23-NOV-13 10:33:10</cmt>
        <desc>23-NOV-13 10:33:10</desc>
        <sym>Lodging</sym>
        <extensions>
            <gpxx:WaypointExtension xmlns:gpxx="http://www.garmin.com/xmlschemas/GpxExtensions/v3">
                <gpxx:DisplayMode>SymbolOnly</gpxx:DisplayMode>
            </gpxx:WaypointExtension>
        </extensions>
    </wpt>
    <trk>
        <name>Sunday</name>
        <extensions>
            <gpxx:TrackExtension xmlns:gpxx="http://www.garmin.com/xmlschemas/GpxExtensions/v3">
                <gpxx:DisplayColor>Green</gpxx:DisplayColor>
            </gpxx:TrackExtension>
        </extensions>
        <trkseg>
            <trkpt lon="99.679439" lat="13.184792">
                <ele>90.980000</ele>
                <time>2013-11-24T03:02:21Z</time>
            </trkpt>
            <trkpt lon="99.679437" lat="13.184803">
                <ele>103.480000</ele>
                <time>2013-11-24T03:03:40Z</time>
            </trkpt>
            <trkpt lon="99.679451" lat="13.184849">
                <ele>103.480000</ele>
                <time>2013-11-24T03:07:10Z</time>
            </trkpt>
            <trkpt lon="99.680079" lat="13.185123">
                <ele>102.040000</ele>
                <time>2013-11-24T03:07:35Z</time>
            </trkpt>
            <trkpt lon="99.680384" lat="13.184998">
                <ele>101.080000</ele>
                <time>2013-11-24T03:07:46Z</time>
            </trkpt>
            <trkpt lon="99.680405" lat="13.184488">
                <ele>100.600000</ele>
                <time>2013-11-24T03:08:02Z</time>
            </trkpt>
            <trkpt lon="99.680507" lat="13.184457">
                <ele>100.600000</ele>
                <time>2013-11-24T03:08:07Z</time>
            </trkpt>
            <trkpt lon="99.681625" lat="13.184325">
                <ele>98.190000</ele>
                <time>2013-11-24T03:08:35Z</time>
            </trkpt>
            <trkpt lon="99.682136" lat="13.184529">
                <ele>97.230000</ele>
                <time>2013-11-24T03:08:48Z</time>
            </trkpt>
            <trkpt lon="99.684055" lat="13.184721">
                <ele>101.560000</ele>
                <time>2013-11-24T03:10:23Z</time>
            </trkpt>
            <trkpt lon="99.685066" lat="13.184149">
                <ele>101.560000</ele>
                <time>2013-11-24T03:11:09Z</time>
            </trkpt>
            <trkpt lon="99.685202" lat="13.183266">
                <ele>97.710000</ele>
                <time>2013-11-24T03:11:52Z</time>
            </trkpt>
            <trkpt lon="99.684801" lat="13.182526">
                <ele>92.900000</ele>
                <time>2013-11-24T03:13:30Z</time>
            </trkpt>
            <trkpt lon="99.684392" lat="13.182244">
                <ele>89.060000</ele>
                <time>2013-11-24T03:13:58Z</time>
            </trkpt>
            <trkpt lon="99.684250" lat="13.181729">
                <ele>88.100000</ele>
                <time>2013-11-24T03:14:27Z</time>
            </trkpt>
            <trkpt lon="99.686259" lat="13.180834">
                <ele>81.850000</ele>
                <time>2013-11-24T03:16:01Z</time>
            </trkpt>
            <trkpt lon="99.686619" lat="13.180523">
                <ele>79.930000</ele>
                <time>2013-11-24T03:16:17Z</time>
            </trkpt>
            <trkpt lon="99.687271" lat="13.179360">
                <ele>76.080000</ele>
                <time>2013-11-24T03:16:55Z</time>
            </trkpt>
            <trkpt lon="99.687599" lat="13.179040">
                <ele>75.600000</ele>
                <time>2013-11-24T03:17:08Z</time>
            </trkpt>
            <trkpt lon="99.688035" lat="13.179099">
                <ele>75.120000</ele>
                <time>2013-11-24T03:17:19Z</time>
            </trkpt>
            <trkpt lon="99.688190" lat="13.178947">
                <ele>75.120000</ele>
                <time>2013-11-24T03:17:25Z</time>
            </trkpt>
            <trkpt lon="99.688251" lat="13.177249">
                <ele>76.080000</ele>
                <time>2013-11-24T03:18:15Z</time>
            </trkpt>
            <trkpt lon="99.688096" lat="13.177116">
                <ele>77.040000</ele>
                <time>2013-11-24T03:18:29Z</time>
            </trkpt>
            <trkpt lon="99.688091" lat="13.177037">
                <ele>77.040000</ele>
                <time>2013-11-24T03:18:33Z</time>
            </trkpt>
            <trkpt lon="99.688273" lat="13.176487">
                <ele>77.040000</ele>
                <time>2013-11-24T03:18:51Z</time>
            </trkpt>
            <trkpt lon="99.688973" lat="13.175368">
                <ele>77.040000</ele>
                <time>2013-11-24T03:19:27Z</time>
            </trkpt>
            <trkpt lon="99.689407" lat="13.174708">
                <ele>73.680000</ele>
                <time>2013-11-24T03:19:54Z</time>
            </trkpt>
            <trkpt lon="99.689514" lat="13.174823">
                <ele>74.640000</ele>
                <time>2013-11-24T03:21:03Z</time>
            </trkpt>
            <trkpt lon="99.689453" lat="13.174302">
                <ele>74.160000</ele>
                <time>2013-11-24T03:21:17Z</time>
            </trkpt>
            <trkpt lon="99.689454" lat="13.173498">
                <ele>69.830000</ele>
                <time>2013-11-24T03:21:36Z</time>
            </trkpt>
            <trkpt lon="99.689076" lat="13.173358">
                <ele>68.870000</ele>
                <time>2013-11-24T03:21:47Z</time>
            </trkpt>
            <trkpt lon="99.688657" lat="13.173514">
                <ele>69.830000</ele>
                <time>2013-11-24T03:22:14Z</time>
            </trkpt>
            <trkpt lon="99.689042" lat="13.174301">
                <ele>71.760000</ele>
                <time>2013-11-24T03:23:04Z</time>
            </trkpt>
            <trkpt lon="99.689242" lat="13.174444">
                <ele>74.160000</ele>
                <time>2013-11-24T03:23:17Z</time>
            </trkpt>
            <trkpt lon="99.689850" lat="13.177941">
                <ele>71.760000</ele>
                <time>2013-11-24T03:24:33Z</time>
            </trkpt>
            <trkpt lon="99.689012" lat="13.177394">
                <ele>75.120000</ele>
                <time>2013-11-24T03:25:07Z</time>
            </trkpt>
            <trkpt lon="99.687881" lat="13.177087">
                <ele>77.520000</ele>
                <time>2013-11-24T03:25:38Z</time>
            </trkpt>
            <trkpt lon="99.685084" lat="13.176617">
                <ele>78.970000</ele>
                <time>2013-11-24T03:26:36Z</time>
            </trkpt>
            <trkpt lon="99.684930" lat="13.175472">
                <ele>77.040000</ele>
                <time>2013-11-24T03:27:00Z</time>
            </trkpt>
            <trkpt lon="99.684833" lat="13.175075">
                <ele>74.160000</ele>
                <time>2013-11-24T03:27:07Z</time>
            </trkpt>
            <trkpt lon="99.685553" lat="13.174891">
                <ele>73.200000</ele>
                <time>2013-11-24T03:27:30Z</time>
            </trkpt>
            <trkpt lon="99.685617" lat="13.173211">
                <ele>72.240000</ele>
                <time>2013-11-24T03:28:15Z</time>
            </trkpt>
            <trkpt lon="99.685620" lat="13.172130">
                <ele>68.870000</ele>
                <time>2013-11-24T03:29:10Z</time>
            </trkpt>
            <trkpt lon="99.683958" lat="13.172004">
                <ele>69.830000</ele>
                <time>2013-11-24T03:30:36Z</time>
            </trkpt>
            <trkpt lon="99.683162" lat="13.170946">
                <ele>73.200000</ele>
                <time>2013-11-24T03:31:13Z</time>
            </trkpt>
            <trkpt lon="99.682956" lat="13.170353">
                <ele>73.680000</ele>
                <time>2013-11-24T03:31:30Z</time>
            </trkpt>
            <trkpt lon="99.682002" lat="13.171172">
                <ele>74.160000</ele>
                <time>2013-11-24T03:31:56Z</time>
            </trkpt>
            <trkpt lon="99.681829" lat="13.171174">
                <ele>74.640000</ele>
                <time>2013-11-24T03:32:00Z</time>
            </trkpt>
            <trkpt lon="99.680749" lat="13.170240">
                <ele>72.720000</ele>
                <time>2013-11-24T03:32:31Z</time>
            </trkpt>
            <trkpt lon="99.680660" lat="13.170288">
                <ele>73.200000</ele>
                <time>2013-11-24T03:32:35Z</time>
            </trkpt>
            <trkpt lon="99.680434" lat="13.172795">
                <ele>74.160000</ele>
                <time>2013-11-24T03:33:38Z</time>
            </trkpt>
            <trkpt lon="99.679539" lat="13.171198">
                <ele>74.160000</ele>
                <time>2013-11-24T03:34:13Z</time>
            </trkpt>
            <trkpt lon="99.678742" lat="13.169333">
                <ele>75.600000</ele>
                <time>2013-11-24T03:37:35Z</time>
            </trkpt>
            <trkpt lon="99.677830" lat="13.169818">
                <ele>75.600000</ele>
                <time>2013-11-24T03:38:01Z</time>
            </trkpt>
            <trkpt lon="99.677545" lat="13.170414">
                <ele>76.560000</ele>
                <time>2013-11-24T03:38:17Z</time>
            </trkpt>
            <trkpt lon="99.677511" lat="13.170748">
                <ele>76.560000</ele>
                <time>2013-11-24T03:38:25Z</time>
            </trkpt>
            <trkpt lon="99.677945" lat="13.171461">
                <ele>78.000000</ele>
                <time>2013-11-24T03:38:44Z</time>
            </trkpt>
            <trkpt lon="99.678010" lat="13.171675">
                <ele>77.040000</ele>
                <time>2013-11-24T03:38:49Z</time>
            </trkpt>
            <trkpt lon="99.677615" lat="13.172784">
                <ele>75.120000</ele>
                <time>2013-11-24T03:39:13Z</time>
            </trkpt>
            <trkpt lon="99.677061" lat="13.173270">
                <ele>77.040000</ele>
                <time>2013-11-24T03:39:35Z</time>
            </trkpt>
            <trkpt lon="99.676609" lat="13.173351">
                <ele>75.120000</ele>
                <time>2013-11-24T03:40:10Z</time>
            </trkpt>
            <trkpt lon="99.676376" lat="13.172842">
                <ele>76.560000</ele>
                <time>2013-11-24T03:40:34Z</time>
            </trkpt>
            <trkpt lon="99.675857" lat="13.172519">
                <ele>77.520000</ele>
                <time>2013-11-24T03:40:52Z</time>
            </trkpt>
            <trkpt lon="99.675816" lat="13.172479">
                <ele>77.040000</ele>
                <time>2013-11-24T03:40:54Z</time>
            </trkpt>
            <trkpt lon="99.675897" lat="13.171885">
                <ele>77.040000</ele>
                <time>2013-11-24T03:41:13Z</time>
            </trkpt>
            <trkpt lon="99.675687" lat="13.170110">
                <ele>86.660000</ele>
                <time>2013-11-24T03:42:56Z</time>
            </trkpt>
            <trkpt lon="99.675568" lat="13.169214">
                <ele>85.690000</ele>
                <time>2013-11-24T03:43:21Z</time>
            </trkpt>
            <trkpt lon="99.676248" lat="13.166845">
                <ele>82.330000</ele>
                <time>2013-11-24T03:44:19Z</time>
            </trkpt>
            <trkpt lon="99.676693" lat="13.166501">
                <ele>78.970000</ele>
                <time>2013-11-24T03:44:36Z</time>
            </trkpt>
            <trkpt lon="99.676183" lat="13.165691">
                <ele>83.290000</ele>
                <time>2013-11-24T03:45:09Z</time>
            </trkpt>
            <trkpt lon="99.675866" lat="13.164645">
                <ele>82.810000</ele>
                <time>2013-11-24T03:45:31Z</time>
            </trkpt>
            <trkpt lon="99.676076" lat="13.161727">
                <ele>86.660000</ele>
                <time>2013-11-24T03:46:19Z</time>
            </trkpt>
            <trkpt lon="99.675980" lat="13.160752">
                <ele>87.620000</ele>
                <time>2013-11-24T03:46:38Z</time>
            </trkpt>
            <trkpt lon="99.674487" lat="13.158903">
                <ele>96.750000</ele>
                <time>2013-11-24T03:47:32Z</time>
            </trkpt>
            <trkpt lon="99.674780" lat="13.158635">
                <ele>98.190000</ele>
                <time>2013-11-24T03:47:45Z</time>
            </trkpt>
            <trkpt lon="99.675042" lat="13.158364">
                <ele>97.710000</ele>
                <time>2013-11-24T03:47:55Z</time>
            </trkpt>
            <trkpt lon="99.675093" lat="13.158079">
                <ele>93.390000</ele>
                <time>2013-11-24T03:48:04Z</time>
            </trkpt>
            <trkpt lon="99.675344" lat="13.157824">
                <ele>90.980000</ele>
                <time>2013-11-24T03:48:12Z</time>
            </trkpt>
            <trkpt lon="99.675168" lat="13.156961">
                <ele>90.020000</ele>
                <time>2013-11-24T03:48:29Z</time>
            </trkpt>
            <trkpt lon="99.674831" lat="13.156435">
                <ele>93.390000</ele>
                <time>2013-11-24T03:48:42Z</time>
            </trkpt>
            <trkpt lon="99.674456" lat="13.156261">
                <ele>96.270000</ele>
                <time>2013-11-24T03:48:52Z</time>
            </trkpt>
            <trkpt lon="99.674083" lat="13.156273">
                <ele>97.230000</ele>
                <time>2013-11-24T03:49:02Z</time>
            </trkpt>
            <trkpt lon="99.673550" lat="13.155455">
                <ele>99.150000</ele>
                <time>2013-11-24T03:49:26Z</time>
            </trkpt>
            <trkpt lon="99.673471" lat="13.154845">
                <ele>99.150000</ele>
                <time>2013-11-24T03:49:41Z</time>
            </trkpt>
            <trkpt lon="99.672968" lat="13.154523">
                <ele>100.110000</ele>
                <time>2013-11-24T03:49:54Z</time>
            </trkpt>
            <trkpt lon="99.672360" lat="13.153776">
                <ele>102.520000</ele>
                <time>2013-11-24T03:50:17Z</time>
            </trkpt>
            <trkpt lon="99.672376" lat="13.153414">
                <ele>104.920000</ele>
                <time>2013-11-24T03:50:31Z</time>
            </trkpt>
            <trkpt lon="99.673035" lat="13.153027">
                <ele>109.730000</ele>
                <time>2013-11-24T03:51:07Z</time>
            </trkpt>
            <trkpt lon="99.673762" lat="13.152662">
                <ele>110.690000</ele>
                <time>2013-11-24T03:51:34Z</time>
            </trkpt>
            <trkpt lon="99.674300" lat="13.151984">
                <ele>108.770000</ele>
                <time>2013-11-24T03:51:55Z</time>
            </trkpt>
            <trkpt lon="99.675037" lat="13.151456">
                <ele>105.880000</ele>
                <time>2013-11-24T03:52:13Z</time>
            </trkpt>
            <trkpt lon="99.675537" lat="13.151185">
                <ele>103.960000</ele>
                <time>2013-11-24T03:52:24Z</time>
            </trkpt>
            <trkpt lon="99.675979" lat="13.151185">
                <ele>104.920000</ele>
                <time>2013-11-24T03:52:36Z</time>
            </trkpt>
            <trkpt lon="99.676892" lat="13.151960">
                <ele>105.880000</ele>
                <time>2013-11-24T03:53:07Z</time>
            </trkpt>
            <trkpt lon="99.677270" lat="13.152495">
                <ele>107.320000</ele>
                <time>2013-11-24T03:53:21Z</time>
            </trkpt>
            <trkpt lon="99.677439" lat="13.152778">
                <ele>107.320000</ele>
                <time>2013-11-24T03:53:30Z</time>
            </trkpt>
            <trkpt lon="99.677628" lat="13.152726">
                <ele>111.650000</ele>
                <time>2013-11-24T03:53:59Z</time>
            </trkpt>
            <trkpt lon="99.678051" lat="13.153289">
                <ele>111.650000</ele>
                <time>2013-11-24T03:54:30Z</time>
            </trkpt>
            <trkpt lon="99.677877" lat="13.154338">
                <ele>117.420000</ele>
                <time>2013-11-24T03:55:04Z</time>
            </trkpt>
            <trkpt lon="99.677597" lat="13.154789">
                <ele>119.820000</ele>
                <time>2013-11-24T03:55:21Z</time>
            </trkpt>
            <trkpt lon="99.677395" lat="13.155655">
                <ele>118.380000</ele>
                <time>2013-11-24T03:55:40Z</time>
            </trkpt>
            <trkpt lon="99.677478" lat="13.155984">
                <ele>116.940000</ele>
                <time>2013-11-24T03:55:46Z</time>
            </trkpt>
            <trkpt lon="99.678137" lat="13.156433">
                <ele>111.170000</ele>
                <time>2013-11-24T03:55:58Z</time>
            </trkpt>
            <trkpt lon="99.678309" lat="13.156394">
                <ele>108.290000</ele>
                <time>2013-11-24T03:56:01Z</time>
            </trkpt>
            <trkpt lon="99.678536" lat="13.156038">
                <ele>105.880000</ele>
                <time>2013-11-24T03:56:08Z</time>
            </trkpt>
            <trkpt lon="99.678864" lat="13.155781">
                <ele>103.960000</ele>
                <time>2013-11-24T03:56:14Z</time>
            </trkpt>
            <trkpt lon="99.680809" lat="13.155266">
                <ele>94.830000</ele>
                <time>2013-11-24T03:56:40Z</time>
            </trkpt>
            <trkpt lon="99.681150" lat="13.154988">
                <ele>90.980000</ele>
                <time>2013-11-24T03:56:51Z</time>
            </trkpt>
            <trkpt lon="99.681381" lat="13.155037">
                <ele>92.420000</ele>
                <time>2013-11-24T03:56:56Z</time>
            </trkpt>
            <trkpt lon="99.681941" lat="13.154390">
                <ele>92.900000</ele>
                <time>2013-11-24T03:57:14Z</time>
            </trkpt>
            <trkpt lon="99.681726" lat="13.153520">
                <ele>90.500000</ele>
                <time>2013-11-24T03:57:32Z</time>
            </trkpt>
            <trkpt lon="99.681759" lat="13.152983">
                <ele>84.250000</ele>
                <time>2013-11-24T03:57:41Z</time>
            </trkpt>
            <trkpt lon="99.683341" lat="13.151470">
                <ele>79.930000</ele>
                <time>2013-11-24T03:58:52Z</time>
            </trkpt>
            <trkpt lon="99.683542" lat="13.151464">
                <ele>79.450000</ele>
                <time>2013-11-24T03:58:57Z</time>
            </trkpt>
            <trkpt lon="99.684678" lat="13.152142">
                <ele>79.930000</ele>
                <time>2013-11-24T03:59:30Z</time>
            </trkpt>
            <trkpt lon="99.685285" lat="13.153598">
                <ele>78.480000</ele>
                <time>2013-11-24T04:00:08Z</time>
            </trkpt>
            <trkpt lon="99.685696" lat="13.154058">
                <ele>78.480000</ele>
                <time>2013-11-24T04:00:20Z</time>
            </trkpt>
            <trkpt lon="99.686123" lat="13.154177">
                <ele>78.480000</ele>
                <time>2013-11-24T04:00:30Z</time>
            </trkpt>
            <trkpt lon="99.686268" lat="13.155990">
                <ele>79.930000</ele>
                <time>2013-11-24T04:01:02Z</time>
            </trkpt>
            <trkpt lon="99.686513" lat="13.156097">
                <ele>79.450000</ele>
                <time>2013-11-24T04:01:09Z</time>
            </trkpt>
            <trkpt lon="99.687701" lat="13.156234">
                <ele>78.480000</ele>
                <time>2013-11-24T04:01:40Z</time>
            </trkpt>
            <trkpt lon="99.688641" lat="13.155405">
                <ele>77.520000</ele>
                <time>2013-11-24T04:02:03Z</time>
            </trkpt>
            <trkpt lon="99.689444" lat="13.153978">
                <ele>76.560000</ele>
                <time>2013-11-24T04:02:29Z</time>
            </trkpt>
            <trkpt lon="99.689938" lat="13.153588">
                <ele>77.040000</ele>
                <time>2013-11-24T04:02:40Z</time>
            </trkpt>
            <trkpt lon="99.691178" lat="13.153596">
                <ele>78.000000</ele>
                <time>2013-11-24T04:03:03Z</time>
            </trkpt>
            <trkpt lon="99.695391" lat="13.152796">
                <ele>77.040000</ele>
                <time>2013-11-24T04:04:07Z</time>
            </trkpt>
            <trkpt lon="99.695800" lat="13.153096">
                <ele>76.080000</ele>
                <time>2013-11-24T04:04:18Z</time>
            </trkpt>
            <trkpt lon="99.697155" lat="13.153578">
                <ele>75.600000</ele>
                <time>2013-11-24T04:04:46Z</time>
            </trkpt>
            <trkpt lon="99.698218" lat="13.153724">
                <ele>75.600000</ele>
                <time>2013-11-24T04:05:06Z</time>
            </trkpt>
            <trkpt lon="99.698102" lat="13.153144">
                <ele>75.120000</ele>
                <time>2013-11-24T04:05:28Z</time>
            </trkpt>
            <trkpt lon="99.698085" lat="13.153158">
                <ele>74.160000</ele>
                <time>2013-11-24T04:05:43Z</time>
            </trkpt>
            <trkpt lon="99.698083" lat="13.153159">
                <ele>61.180000</ele>
                <time>2013-11-24T04:09:32Z</time>
            </trkpt>
            <trkpt lon="99.698093" lat="13.153135">
                <ele>58.780000</ele>
                <time>2013-11-24T04:16:24Z</time>
            </trkpt>
            <trkpt lon="99.698121" lat="13.153103">
                <ele>58.780000</ele>
                <time>2013-11-24T04:16:27Z</time>
            </trkpt>
            <trkpt lon="99.698328" lat="13.153373">
                <ele>59.740000</ele>
                <time>2013-11-24T04:16:38Z</time>
            </trkpt>
            <trkpt lon="99.698618" lat="13.153406">
                <ele>61.180000</ele>
                <time>2013-11-24T04:16:44Z</time>
            </trkpt>
            <trkpt lon="99.700462" lat="13.153514">
                <ele>64.070000</ele>
                <time>2013-11-24T04:17:10Z</time>
            </trkpt>
            <trkpt lon="99.701807" lat="13.154176">
                <ele>65.990000</ele>
                <time>2013-11-24T04:17:32Z</time>
            </trkpt>
            <trkpt lon="99.701840" lat="13.154466">
                <ele>65.510000</ele>
                <time>2013-11-24T04:17:38Z</time>
            </trkpt>
            <trkpt lon="99.701040" lat="13.155918">
                <ele>67.430000</ele>
                <time>2013-11-24T04:18:07Z</time>
            </trkpt>
            <trkpt lon="99.700964" lat="13.156058">
                <ele>67.430000</ele>
                <time>2013-11-24T04:18:19Z</time>
            </trkpt>
            <trkpt lon="99.701477" lat="13.154983">
                <ele>68.390000</ele>
                <time>2013-11-24T04:19:02Z</time>
            </trkpt>
            <trkpt lon="99.701224" lat="13.155043">
                <ele>68.870000</ele>
                <time>2013-11-24T04:19:17Z</time>
            </trkpt>
            <trkpt lon="99.701137" lat="13.155060">
                <ele>68.870000</ele>
                <time>2013-11-24T04:19:21Z</time>
            </trkpt>
            <trkpt lon="99.700958" lat="13.155622">
                <ele>68.870000</ele>
                <time>2013-11-24T04:19:44Z</time>
            </trkpt>
            <trkpt lon="99.701096" lat="13.155789">
                <ele>69.830000</ele>
                <time>2013-11-24T04:19:53Z</time>
            </trkpt>
            <trkpt lon="99.701006" lat="13.155971">
                <ele>70.790000</ele>
                <time>2013-11-24T04:19:58Z</time>
            </trkpt>
            <trkpt lon="99.700544" lat="13.157562">
                <ele>72.240000</ele>
                <time>2013-11-24T04:20:46Z</time>
            </trkpt>
            <trkpt lon="99.700534" lat="13.157577">
                <ele>69.830000</ele>
                <time>2013-11-24T04:21:25Z</time>
            </trkpt>
            <trkpt lon="99.700938" lat="13.156377">
                <ele>70.790000</ele>
                <time>2013-11-24T04:22:35Z</time>
            </trkpt>
            <trkpt lon="99.701474" lat="13.156550">
                <ele>71.270000</ele>
                <time>2013-11-24T04:22:56Z</time>
            </trkpt>
            <trkpt lon="99.701467" lat="13.157256">
                <ele>72.720000</ele>
                <time>2013-11-24T04:23:17Z</time>
            </trkpt>
            <trkpt lon="99.701479" lat="13.158120">
                <ele>73.200000</ele>
                <time>2013-11-24T04:23:43Z</time>
            </trkpt>
            <trkpt lon="99.702134" lat="13.158150">
                <ele>73.680000</ele>
                <time>2013-11-24T04:24:13Z</time>
            </trkpt>
            <trkpt lon="99.702737" lat="13.158197">
                <ele>70.790000</ele>
                <time>2013-11-24T04:24:47Z</time>
            </trkpt>
            <trkpt lon="99.702956" lat="13.159707">
                <ele>73.680000</ele>
                <time>2013-11-24T04:26:22Z</time>
            </trkpt>
            <trkpt lon="99.703195" lat="13.160166">
                <ele>73.680000</ele>
                <time>2013-11-24T04:26:39Z</time>
            </trkpt>
            <trkpt lon="99.703076" lat="13.161360">
                <ele>75.600000</ele>
                <time>2013-11-24T04:27:07Z</time>
            </trkpt>
            <trkpt lon="99.703266" lat="13.160190">
                <ele>77.040000</ele>
                <time>2013-11-24T04:27:52Z</time>
            </trkpt>
            <trkpt lon="99.703573" lat="13.160161">
                <ele>77.520000</ele>
                <time>2013-11-24T04:28:04Z</time>
            </trkpt>
            <trkpt lon="99.704269" lat="13.160690">
                <ele>77.040000</ele>
                <time>2013-11-24T04:28:23Z</time>
            </trkpt>
            <trkpt lon="99.703924" lat="13.161532">
                <ele>77.520000</ele>
                <time>2013-11-24T04:28:46Z</time>
            </trkpt>
            <trkpt lon="99.703124" lat="13.162544">
                <ele>78.970000</ele>
                <time>2013-11-24T04:29:12Z</time>
            </trkpt>
            <trkpt lon="99.702653" lat="13.162689">
                <ele>77.520000</ele>
                <time>2013-11-24T04:29:19Z</time>
            </trkpt>
            <trkpt lon="99.702282" lat="13.162998">
                <ele>76.080000</ele>
                <time>2013-11-24T04:29:26Z</time>
            </trkpt>
            <trkpt lon="99.702293" lat="13.163316">
                <ele>76.080000</ele>
                <time>2013-11-24T04:29:31Z</time>
            </trkpt>
            <trkpt lon="99.702518" lat="13.163917">
                <ele>75.600000</ele>
                <time>2013-11-24T04:29:43Z</time>
            </trkpt>
            <trkpt lon="99.703759" lat="13.163756">
                <ele>78.000000</ele>
                <time>2013-11-24T04:30:24Z</time>
            </trkpt>
            <trkpt lon="99.704163" lat="13.163862">
                <ele>78.480000</ele>
                <time>2013-11-24T04:30:36Z</time>
            </trkpt>
            <trkpt lon="99.704525" lat="13.164197">
                <ele>78.480000</ele>
                <time>2013-11-24T04:30:50Z</time>
            </trkpt>
            <trkpt lon="99.704944" lat="13.164321">
                <ele>79.450000</ele>
                <time>2013-11-24T04:31:04Z</time>
            </trkpt>
            <trkpt lon="99.705244" lat="13.164381">
                <ele>79.450000</ele>
                <time>2013-11-24T04:31:25Z</time>
            </trkpt>
            <trkpt lon="99.704536" lat="13.164198">
                <ele>79.450000</ele>
                <time>2013-11-24T04:31:43Z</time>
            </trkpt>
            <trkpt lon="99.703933" lat="13.163765">
                <ele>78.480000</ele>
                <time>2013-11-24T04:31:59Z</time>
            </trkpt>
            <trkpt lon="99.702571" lat="13.163956">
                <ele>77.520000</ele>
                <time>2013-11-24T04:32:29Z</time>
            </trkpt>
            <trkpt lon="99.702720" lat="13.164466">
                <ele>76.080000</ele>
                <time>2013-11-24T04:32:41Z</time>
            </trkpt>
            <trkpt lon="99.702959" lat="13.164718">
                <ele>76.080000</ele>
                <time>2013-11-24T04:32:50Z</time>
            </trkpt>
            <trkpt lon="99.703430" lat="13.164792">
                <ele>77.520000</ele>
                <time>2013-11-24T04:33:08Z</time>
            </trkpt>
            <trkpt lon="99.703741" lat="13.165072">
                <ele>78.480000</ele>
                <time>2013-11-24T04:33:21Z</time>
            </trkpt>
            <trkpt lon="99.704120" lat="13.165465">
                <ele>79.450000</ele>
                <time>2013-11-24T04:33:38Z</time>
            </trkpt>
            <trkpt lon="99.704359" lat="13.165860">
                <ele>79.930000</ele>
                <time>2013-11-24T04:33:55Z</time>
            </trkpt>
            <trkpt lon="99.704092" lat="13.166176">
                <ele>80.890000</ele>
                <time>2013-11-24T04:34:07Z</time>
            </trkpt>
            <trkpt lon="99.703236" lat="13.165821">
                <ele>81.370000</ele>
                <time>2013-11-24T04:34:22Z</time>
            </trkpt>
            <trkpt lon="99.702497" lat="13.165802">
                <ele>80.890000</ele>
                <time>2013-11-24T04:34:32Z</time>
            </trkpt>
            <trkpt lon="99.702200" lat="13.166164">
                <ele>79.450000</ele>
                <time>2013-11-24T04:34:39Z</time>
            </trkpt>
            <trkpt lon="99.702212" lat="13.166792">
                <ele>78.480000</ele>
                <time>2013-11-24T04:34:47Z</time>
            </trkpt>
            <trkpt lon="99.702667" lat="13.167558">
                <ele>78.000000</ele>
                <time>2013-11-24T04:36:29Z</time>
            </trkpt>
            <trkpt lon="99.702222" lat="13.166876">
                <ele>74.160000</ele>
                <time>2013-11-24T04:37:23Z</time>
            </trkpt>
            <trkpt lon="99.701706" lat="13.167067">
                <ele>73.200000</ele>
                <time>2013-11-24T04:37:51Z</time>
            </trkpt>
            <trkpt lon="99.701027" lat="13.169004">
                <ele>72.720000</ele>
                <time>2013-11-24T04:38:37Z</time>
            </trkpt>
            <trkpt lon="99.700967" lat="13.169104">
                <ele>72.240000</ele>
                <time>2013-11-24T04:38:39Z</time>
            </trkpt>
            <trkpt lon="99.700808" lat="13.170915">
                <ele>75.120000</ele>
                <time>2013-11-24T04:39:28Z</time>
            </trkpt>
            <trkpt lon="99.700883" lat="13.171319">
                <ele>75.600000</ele>
                <time>2013-11-24T04:39:43Z</time>
            </trkpt>
            <trkpt lon="99.701088" lat="13.171619">
                <ele>76.560000</ele>
                <time>2013-11-24T04:39:56Z</time>
            </trkpt>
            <trkpt lon="99.701664" lat="13.172045">
                <ele>93.390000</ele>
                <time>2013-11-24T04:40:20Z</time>
            </trkpt>
            <trkpt lon="99.701963" lat="13.172778">
                <ele>93.390000</ele>
                <time>2013-11-24T04:40:46Z</time>
            </trkpt>
            <trkpt lon="99.701710" lat="13.173074">
                <ele>93.390000</ele>
                <time>2013-11-24T04:40:53Z</time>
            </trkpt>
            <trkpt lon="99.701297" lat="13.173282">
                <ele>94.350000</ele>
                <time>2013-11-24T04:41:02Z</time>
            </trkpt>
            <trkpt lon="99.700863" lat="13.173640">
                <ele>93.870000</ele>
                <time>2013-11-24T04:41:13Z</time>
            </trkpt>
            <trkpt lon="99.700079" lat="13.173867">
                <ele>93.870000</ele>
                <time>2013-11-24T04:41:25Z</time>
            </trkpt>
            <trkpt lon="99.700182" lat="13.173908">
                <ele>93.870000</ele>
                <time>2013-11-24T04:41:36Z</time>
            </trkpt>
            <trkpt lon="99.700203" lat="13.174834">
                <ele>93.390000</ele>
                <time>2013-11-24T04:41:58Z</time>
            </trkpt>
            <trkpt lon="99.700663" lat="13.175439">
                <ele>93.870000</ele>
                <time>2013-11-24T04:42:15Z</time>
            </trkpt>
            <trkpt lon="99.700508" lat="13.175702">
                <ele>93.390000</ele>
                <time>2013-11-24T04:42:22Z</time>
            </trkpt>
            <trkpt lon="99.700522" lat="13.176093">
                <ele>93.870000</ele>
                <time>2013-11-24T04:42:34Z</time>
            </trkpt>
            <trkpt lon="99.701312" lat="13.177387">
                <ele>115.010000</ele>
                <time>2013-11-24T04:44:18Z</time>
            </trkpt>
            <trkpt lon="99.701240" lat="13.177537">
                <ele>114.050000</ele>
                <time>2013-11-24T04:44:30Z</time>
            </trkpt>
            <trkpt lon="99.700835" lat="13.177526">
                <ele>113.570000</ele>
                <time>2013-11-24T04:44:39Z</time>
            </trkpt>
            <trkpt lon="99.700407" lat="13.177130">
                <ele>114.050000</ele>
                <time>2013-11-24T04:44:50Z</time>
            </trkpt>
            <trkpt lon="99.699716" lat="13.176860">
                <ele>112.130000</ele>
                <time>2013-11-24T04:45:02Z</time>
            </trkpt>
            <trkpt lon="99.699211" lat="13.176856">
                <ele>111.650000</ele>
                <time>2013-11-24T04:45:10Z</time>
            </trkpt>
            <trkpt lon="99.698296" lat="13.176631">
                <ele>107.810000</ele>
                <time>2013-11-24T04:45:27Z</time>
            </trkpt>
            <trkpt lon="99.698116" lat="13.176835">
                <ele>105.880000</ele>
                <time>2013-11-24T04:45:33Z</time>
            </trkpt>
            <trkpt lon="99.697393" lat="13.176954">
                <ele>104.920000</ele>
                <time>2013-11-24T04:45:44Z</time>
            </trkpt>
            <trkpt lon="99.697112" lat="13.177006">
                <ele>103.960000</ele>
                <time>2013-11-24T04:45:49Z</time>
            </trkpt>
            <trkpt lon="99.697031" lat="13.177402">
                <ele>103.480000</ele>
                <time>2013-11-24T04:45:56Z</time>
            </trkpt>
            <trkpt lon="99.697810" lat="13.180057">
                <ele>102.040000</ele>
                <time>2013-11-24T04:47:02Z</time>
            </trkpt>
            <trkpt lon="99.698084" lat="13.180764">
                <ele>101.080000</ele>
                <time>2013-11-24T04:47:21Z</time>
            </trkpt>
            <trkpt lon="99.698345" lat="13.181051">
                <ele>101.080000</ele>
                <time>2013-11-24T04:47:34Z</time>
            </trkpt>
            <trkpt lon="99.698682" lat="13.180954">
                <ele>102.040000</ele>
                <time>2013-11-24T04:47:58Z</time>
            </trkpt>
            <trkpt lon="99.699138" lat="13.181195">
                <ele>102.520000</ele>
                <time>2013-11-24T04:48:27Z</time>
            </trkpt>
            <trkpt lon="99.699424" lat="13.181515">
                <ele>103.480000</ele>
                <time>2013-11-24T04:48:52Z</time>
            </trkpt>
            <trkpt lon="99.701185" lat="13.181129">
                <ele>105.400000</ele>
                <time>2013-11-24T04:49:41Z</time>
            </trkpt>
            <trkpt lon="99.701579" lat="13.181068">
                <ele>103.960000</ele>
                <time>2013-11-24T04:50:21Z</time>
            </trkpt>
            <trkpt lon="99.702471" lat="13.181232">
                <ele>103.000000</ele>
                <time>2013-11-24T04:51:44Z</time>
            </trkpt>
            <trkpt lon="99.701991" lat="13.181246">
                <ele>101.080000</ele>
                <time>2013-11-24T04:53:12Z</time>
            </trkpt>
            <trkpt lon="99.702043" lat="13.181805">
                <ele>101.560000</ele>
                <time>2013-11-24T04:53:49Z</time>
            </trkpt>
            <trkpt lon="99.702005" lat="13.181217">
                <ele>102.040000</ele>
                <time>2013-11-24T04:54:29Z</time>
            </trkpt>
            <trkpt lon="99.701763" lat="13.181108">
                <ele>103.000000</ele>
                <time>2013-11-24T04:54:52Z</time>
            </trkpt>
            <trkpt lon="99.701534" lat="13.181150">
                <ele>100.600000</ele>
                <time>2013-11-24T04:55:24Z</time>
            </trkpt>
            <trkpt lon="99.701663" lat="13.182608">
                <ele>106.840000</ele>
                <time>2013-11-24T04:56:55Z</time>
            </trkpt>
            <trkpt lon="99.702120" lat="13.182709">
                <ele>121.740000</ele>
                <time>2013-11-24T04:57:35Z</time>
            </trkpt>
            <trkpt lon="99.702518" lat="13.182863">
                <ele>122.710000</ele>
                <time>2013-11-24T04:57:59Z</time>
            </trkpt>
            <trkpt lon="99.702793" lat="13.183002">
                <ele>121.740000</ele>
                <time>2013-11-24T04:58:14Z</time>
            </trkpt>
            <trkpt lon="99.703012" lat="13.183558">
                <ele>122.710000</ele>
                <time>2013-11-24T04:58:41Z</time>
            </trkpt>
            <trkpt lon="99.703158" lat="13.183924">
                <ele>122.220000</ele>
                <time>2013-11-24T04:58:51Z</time>
            </trkpt>
            <trkpt lon="99.703002" lat="13.184338">
                <ele>121.740000</ele>
                <time>2013-11-24T04:59:03Z</time>
            </trkpt>
            <trkpt lon="99.702442" lat="13.184723">
                <ele>118.860000</ele>
                <time>2013-11-24T04:59:20Z</time>
            </trkpt>
            <trkpt lon="99.701922" lat="13.184758">
                <ele>116.460000</ele>
                <time>2013-11-24T04:59:34Z</time>
            </trkpt>
            <trkpt lon="99.701587" lat="13.184960">
                <ele>115.500000</ele>
                <time>2013-11-24T04:59:47Z</time>
            </trkpt>
            <trkpt lon="99.700143" lat="13.185039">
                <ele>115.010000</ele>
                <time>2013-11-24T05:00:14Z</time>
            </trkpt>
            <trkpt lon="99.700127" lat="13.185190">
                <ele>113.090000</ele>
                <time>2013-11-24T05:00:35Z</time>
            </trkpt>
            <trkpt lon="99.699947" lat="13.184721">
                <ele>104.920000</ele>
                <time>2013-11-24T05:01:16Z</time>
            </trkpt>
            <trkpt lon="99.699984" lat="13.184043">
                <ele>104.440000</ele>
                <time>2013-11-24T05:01:56Z</time>
            </trkpt>
            <trkpt lon="99.700284" lat="13.183362">
                <ele>105.880000</ele>
                <time>2013-11-24T05:02:48Z</time>
            </trkpt>
            <trkpt lon="99.700195" lat="13.183055">
                <ele>106.360000</ele>
                <time>2013-11-24T05:03:04Z</time>
            </trkpt>
            <trkpt lon="99.699581" lat="13.182269">
                <ele>105.400000</ele>
                <time>2013-11-24T05:03:42Z</time>
            </trkpt>
            <trkpt lon="99.698910" lat="13.181647">
                <ele>104.920000</ele>
                <time>2013-11-24T05:04:13Z</time>
            </trkpt>
            <trkpt lon="99.698651" lat="13.181415">
                <ele>104.440000</ele>
                <time>2013-11-24T05:04:29Z</time>
            </trkpt>
            <trkpt lon="99.698474" lat="13.181294">
                <ele>103.480000</ele>
                <time>2013-11-24T05:04:39Z</time>
            </trkpt>
            <trkpt lon="99.698476" lat="13.181302">
                <ele>100.110000</ele>
                <time>2013-11-24T05:04:49Z</time>
            </trkpt>
            <trkpt lon="99.698473" lat="13.181286">
                <ele>98.670000</ele>
                <time>2013-11-24T05:05:02Z</time>
            </trkpt>
            <trkpt lon="99.699810" lat="13.182598">
                <ele>100.600000</ele>
                <time>2013-11-24T05:06:24Z</time>
            </trkpt>
            <trkpt lon="99.700308" lat="13.183221">
                <ele>100.110000</ele>
                <time>2013-11-24T05:06:49Z</time>
            </trkpt>
            <trkpt lon="99.700199" lat="13.183677">
                <ele>100.110000</ele>
                <time>2013-11-24T05:07:03Z</time>
            </trkpt>
            <trkpt lon="99.700323" lat="13.183308">
                <ele>101.560000</ele>
                <time>2013-11-24T05:07:31Z</time>
            </trkpt>
            <trkpt lon="99.700349" lat="13.183194">
                <ele>101.080000</ele>
                <time>2013-11-24T05:07:43Z</time>
            </trkpt>
            <trkpt lon="99.699943" lat="13.184661">
                <ele>100.110000</ele>
                <time>2013-11-24T05:08:57Z</time>
            </trkpt>
            <trkpt lon="99.700107" lat="13.185059">
                <ele>105.400000</ele>
                <time>2013-11-24T05:10:27Z</time>
            </trkpt>
            <trkpt lon="99.700369" lat="13.185855">
                <ele>109.730000</ele>
                <time>2013-11-24T05:11:19Z</time>
            </trkpt>
            <trkpt lon="99.700541" lat="13.186273">
                <ele>107.810000</ele>
                <time>2013-11-24T05:11:42Z</time>
            </trkpt>
            <trkpt lon="99.699461" lat="13.186479">
                <ele>104.920000</ele>
                <time>2013-11-24T05:12:23Z</time>
            </trkpt>
            <trkpt lon="99.699447" lat="13.186649">
                <ele>103.960000</ele>
                <time>2013-11-24T05:12:35Z</time>
            </trkpt>
            <trkpt lon="99.699025" lat="13.186636">
                <ele>102.520000</ele>
                <time>2013-11-24T05:12:51Z</time>
            </trkpt>
            <trkpt lon="99.698411" lat="13.186336">
                <ele>102.520000</ele>
                <time>2013-11-24T05:13:33Z</time>
            </trkpt>
            <trkpt lon="99.698639" lat="13.186183">
                <ele>98.190000</ele>
                <time>2013-11-24T05:15:00Z</time>
            </trkpt>
            <trkpt lon="99.698455" lat="13.185583">
                <ele>99.630000</ele>
                <time>2013-11-24T05:15:32Z</time>
            </trkpt>
            <trkpt lon="99.697810" lat="13.185743">
                <ele>99.630000</ele>
                <time>2013-11-24T05:16:06Z</time>
            </trkpt>
            <trkpt lon="99.700007" lat="13.185229">
                <ele>101.080000</ele>
                <time>2013-11-24T05:17:42Z</time>
            </trkpt>
            <trkpt lon="99.700133" lat="13.185266">
                <ele>101.080000</ele>
                <time>2013-11-24T05:17:46Z</time>
            </trkpt>
            <trkpt lon="99.700310" lat="13.185758">
                <ele>102.520000</ele>
                <time>2013-11-24T05:18:03Z</time>
            </trkpt>
            <trkpt lon="99.700540" lat="13.186209">
                <ele>102.040000</ele>
                <time>2013-11-24T05:18:26Z</time>
            </trkpt>
            <trkpt lon="99.700443" lat="13.186341">
                <ele>101.560000</ele>
                <time>2013-11-24T05:18:32Z</time>
            </trkpt>
            <trkpt lon="99.699994" lat="13.186333">
                <ele>100.600000</ele>
                <time>2013-11-24T05:19:09Z</time>
            </trkpt>
            <trkpt lon="99.700403" lat="13.186357">
                <ele>98.670000</ele>
                <time>2013-11-24T05:20:09Z</time>
            </trkpt>
            <trkpt lon="99.700456" lat="13.186058">
                <ele>100.110000</ele>
                <time>2013-11-24T05:20:28Z</time>
            </trkpt>
            <trkpt lon="99.700503" lat="13.185976">
                <ele>99.630000</ele>
                <time>2013-11-24T05:20:33Z</time>
            </trkpt>
            <trkpt lon="99.700793" lat="13.186187">
                <ele>101.080000</ele>
                <time>2013-11-24T05:20:52Z</time>
            </trkpt>
            <trkpt lon="99.700707" lat="13.186340">
                <ele>99.630000</ele>
                <time>2013-11-24T05:21:13Z</time>
            </trkpt>
            <trkpt lon="99.700546" lat="13.186079">
                <ele>101.080000</ele>
                <time>2013-11-24T05:21:48Z</time>
            </trkpt>
            <trkpt lon="99.701120" lat="13.186784">
                <ele>99.630000</ele>
                <time>2013-11-24T05:22:28Z</time>
            </trkpt>
            <trkpt lon="99.701179" lat="13.187947">
                <ele>101.560000</ele>
                <time>2013-11-24T05:23:29Z</time>
            </trkpt>
            <trkpt lon="99.701189" lat="13.188174">
                <ele>101.560000</ele>
                <time>2013-11-24T05:23:41Z</time>
            </trkpt>
            <trkpt lon="99.699676" lat="13.187988">
                <ele>101.560000</ele>
                <time>2013-11-24T05:24:10Z</time>
            </trkpt>
            <trkpt lon="99.698576" lat="13.188035">
                <ele>101.080000</ele>
                <time>2013-11-24T05:24:32Z</time>
            </trkpt>
            <trkpt lon="99.697166" lat="13.188067">
                <ele>99.630000</ele>
                <time>2013-11-24T05:24:58Z</time>
            </trkpt>
            <trkpt lon="99.696637" lat="13.187786">
                <ele>98.190000</ele>
                <time>2013-11-24T05:25:11Z</time>
            </trkpt>
            <trkpt lon="99.695175" lat="13.187806">
                <ele>96.750000</ele>
                <time>2013-11-24T05:25:36Z</time>
            </trkpt>
            <trkpt lon="99.694461" lat="13.188071">
                <ele>95.310000</ele>
                <time>2013-11-24T05:25:50Z</time>
            </trkpt>
            <trkpt lon="99.692066" lat="13.188142">
                <ele>93.870000</ele>
                <time>2013-11-24T05:26:44Z</time>
            </trkpt>
            <trkpt lon="99.691692" lat="13.188139">
                <ele>92.900000</ele>
                <time>2013-11-24T05:26:53Z</time>
            </trkpt>
            <trkpt lon="99.691496" lat="13.189065">
                <ele>93.390000</ele>
                <time>2013-11-24T05:27:20Z</time>
            </trkpt>
            <trkpt lon="99.690864" lat="13.188877">
                <ele>94.350000</ele>
                <time>2013-11-24T05:27:37Z</time>
            </trkpt>
            <trkpt lon="99.689659" lat="13.188768">
                <ele>93.390000</ele>
                <time>2013-11-24T05:28:04Z</time>
            </trkpt>
            <trkpt lon="99.690057" lat="13.185168">
                <ele>93.870000</ele>
                <time>2013-11-24T05:29:00Z</time>
            </trkpt>
            <trkpt lon="99.689566" lat="13.184882">
                <ele>92.900000</ele>
                <time>2013-11-24T05:29:16Z</time>
            </trkpt>
            <trkpt lon="99.688693" lat="13.184932">
                <ele>93.390000</ele>
                <time>2013-11-24T05:29:31Z</time>
            </trkpt>
            <trkpt lon="99.687269" lat="13.182111">
                <ele>95.310000</ele>
                <time>2013-11-24T05:30:47Z</time>
            </trkpt>
            <trkpt lon="99.686311" lat="13.180819">
                <ele>93.870000</ele>
                <time>2013-11-24T05:31:23Z</time>
            </trkpt>
            <trkpt lon="99.684249" lat="13.181734">
                <ele>95.790000</ele>
                <time>2013-11-24T05:32:40Z</time>
            </trkpt>
            <trkpt lon="99.684282" lat="13.181890">
                <ele>103.480000</ele>
                <time>2013-11-24T05:32:52Z</time>
            </trkpt>
            <trkpt lon="99.684434" lat="13.182331">
                <ele>102.040000</ele>
                <time>2013-11-24T05:33:06Z</time>
            </trkpt>
            <trkpt lon="99.684643" lat="13.182445">
                <ele>117.420000</ele>
                <time>2013-11-24T05:33:18Z</time>
            </trkpt>
            <trkpt lon="99.684894" lat="13.182592">
                <ele>113.090000</ele>
                <time>2013-11-24T05:33:42Z</time>
            </trkpt>
            <trkpt lon="99.685285" lat="13.183455">
                <ele>113.570000</ele>
                <time>2013-11-24T05:34:19Z</time>
            </trkpt>
            <trkpt lon="99.685032" lat="13.184280">
                <ele>114.530000</ele>
                <time>2013-11-24T05:34:53Z</time>
            </trkpt>
            <trkpt lon="99.684326" lat="13.184595">
                <ele>114.530000</ele>
                <time>2013-11-24T05:35:18Z</time>
            </trkpt>
            <trkpt lon="99.684197" lat="13.184702">
                <ele>114.050000</ele>
                <time>2013-11-24T05:35:23Z</time>
            </trkpt>
            <trkpt lon="99.682158" lat="13.184536">
                <ele>112.610000</ele>
                <time>2013-11-24T05:36:10Z</time>
            </trkpt>
            <trkpt lon="99.681482" lat="13.184356">
                <ele>112.130000</ele>
                <time>2013-11-24T05:36:29Z</time>
            </trkpt>
            <trkpt lon="99.680595" lat="13.184436">
                <ele>112.610000</ele>
                <time>2013-11-24T05:36:49Z</time>
            </trkpt>
            <trkpt lon="99.680395" lat="13.184896">
                <ele>112.610000</ele>
                <time>2013-11-24T05:37:01Z</time>
            </trkpt>
            <trkpt lon="99.680162" lat="13.185091">
                <ele>112.130000</ele>
                <time>2013-11-24T05:37:09Z</time>
            </trkpt>
            <trkpt lon="99.679471" lat="13.184849">
                <ele>113.090000</ele>
                <time>2013-11-24T05:37:29Z</time>
            </trkpt>
            <trkpt lon="99.679454" lat="13.184818">
                <ele>112.610000</ele>
                <time>2013-11-24T05:37:46Z</time>
            </trkpt>
            <trkpt lon="99.679346" lat="13.184839">
                <ele>115.980000</ele>
                <time>2013-11-24T05:38:21Z</time>
            </trkpt>
        </trkseg>
    </trk>
</gpx>